Huvudsida
METAR-TAF:

METAR-TAF

Flygplatser :

Dübendorf, Schweiz

latitud: 47-23-55N, longitud: 8-38-53E, höjd: 448 m

Aktuellt väderrapport

Denna rapport gjordes för 24 minuter sedan, klockan 22:50 UTC
Vind 4 kt från väst/nordväst, varierande mellan väst/sydväst och nord/nordväst
Temperatur 5°C
Fuktighet 87%
Tryck 1009 hPa
Sikt: 7000 m
Brutna moln på en höjd av 2300 ft
Mulet på en höjd av 3000 ft
lätt regn

METAR: LSMD 112250Z AUTO 29004KT 250V340 7000NDV -RA BKN023 OVC030 05/03 Q1009 RMK

Tid: 00:14 (23:14 UTC)


TAF: saknas

Aktuella väderrapporter och prognoser från 4000 flygplatser (METAR- och TAF-rapporter).

De tillgängliga stationerna syns som gula och röda prickar på kartan.

För musen över prickarna för att se namnen på stationerna.

Klicka sedan för att få väderrapporter och prognoser.

För att ändra kartan: Klicka på de gröna knapparna med ett svart kors på för att zooma in; den gröna knappen med ett streck på för att zooma ut; eller på de gröna pilarna för angränsande kartor.


METAR-TAF: